Time;durP1;ratioP1;P1;durP2;ratioP2;P2;SDS_P1;SDS_P2;PMS_P1;PMS_P2;Temp;Humidity;BMP_temperature;BMP_pressure;BME280_temperature;BME280_humidity;BME280_pressure;Samples;Min_cycle;Max_cycle;Signal;HPM_P1;HPM_P2
2022/05/05 00:01:42;;;;;;;10.15;8.15;;;20.00;66.80;;;;;;5032706;28;20079;-83
2022/05/05 00:04:09;;;;;;;9.65;7.75;;;20.50;66.00;;;;;;5032941;28;20105;-82
2022/05/05 00:06:35;;;;;;;11.48;7.75;;;19.80;66.70;;;;;;5033012;28;20408;-90
2022/05/05 00:09:02;;;;;;;11.70;8.77;;;19.20;69.20;;;;;;5033051;28;20380;-87
2022/05/05 00:14:24;;;;;;;9.18;7.85;;;19.80;67.10;;;;;;5032816;28;20033;-78
2022/05/05 00:16:58;;;;;;;12.00;8.57;;;19.00;69.10;;;;;;5040979;28;20018;-81
2022/05/05 00:19:25;;;;;;;12.48;8.95;;;19.50;68.90;;;;;;5019164;28;20021;-83
2022/05/05 00:21:51;;;;;;;10.02;8.23;;;20.30;66.60;;;;;;5036362;28;20075;-86
2022/05/05 00:24:18;;;;;;;11.00;9.38;;;20.80;65.20;;;;;;5024084;28;20112;-87
2022/05/05 00:26:44;;;;;;;10.57;9.48;;;21.20;64.20;;;;;;5038720;28;20036;-85
2022/05/05 00:29:10;;;;;;;10.45;9.15;;;21.60;63.10;;;;;;5038850;28;20046;-86
2022/05/05 00:31:36;;;;;;;9.38;7.90;;;21.90;62.30;;;;;;5039285;28;20487;-83
2022/05/05 00:34:02;;;;;;;8.32;7.20;;;21.60;61.20;;;;;;5052724;28;20033;-83
2022/05/05 00:36:27;;;;;;;11.40;9.30;;;20.60;62.90;;;;;;5018757;28;20021;-86
2022/05/05 00:38:53;;;;;;;11.90;8.02;;;20.50;65.00;;;;;;5035107;28;20475;-84
2022/05/05 00:41:19;;;;;;;11.10;8.35;;;20.90;63.50;;;;;;5035209;28;20067;-88
2022/05/05 00:43:45;;;;;;;10.02;9.00;;;21.00;63.90;;;;;;5038886;28;20116;-87
2022/05/05 00:46:13;;;;;;;11.40;9.18;;;21.30;63.10;;;;;;5035367;28;20041;-89
2022/05/05 00:48:42;;;;;;;11.90;8.95;;;21.60;63.10;;;;;;5035501;28;20021;-89
2022/05/05 00:51:09;;;;;;;11.73;8.67;;;21.30;62.50;;;;;;5036305;28;20021;-90
2022/05/05 00:53:37;;;;;;;11.30;8.63;;;21.10;63.00;;;;;;5035305;28;20018;-92
2022/05/05 00:56:07;;;;;;;13.32;8.43;;;21.00;63.40;;;;;;5035570;28;20013;-95
2022/05/05 00:58:33;;;;;;;11.93;9.15;;;20.90;63.30;;;;;;5036049;28;20060;-92
2022/05/05 01:01:04;;;;;;;10.90;8.70;;;21.10;62.90;;;;;;5035494;28;20017;-93
2022/05/05 01:03:32;;;;;;;10.15;8.38;;;21.10;62.70;;;;;;5034642;28;20353;-90
2022/05/05 01:05:58;;;;;;;11.50;9.73;;;21.40;62.20;;;;;;5035070;28;20133;-90
2022/05/05 01:08:24;;;;;;;10.13;8.75;;;21.70;61.30;;;;;;5035254;28;20116;-90
2022/05/05 01:10:49;;;;;;;9.27;8.20;;;22.00;61.00;;;;;;5034808;28;20120;-88
2022/05/05 01:13:15;;;;;;;10.32;9.10;;;22.00;60.50;;;;;;5035497;28;20360;-90
2022/05/05 01:15:41;;;;;;;12.38;8.88;;;21.80;61.30;;;;;;5017123;28;20022;-87
2022/05/05 01:18:07;;;;;;;9.70;8.13;;;21.90;60.10;;;;;;5015728;28;20169;-86
2022/05/05 01:20:44;;;;;;;10.52;8.85;;;22.00;60.40;;;;;;5014673;28;20334;-87
2022/05/05 01:23:11;;;;;;;10.40;8.60;;;22.00;60.80;;;;;;5014900;28;20021;-87
2022/05/05 01:28:21;;;;;;;9.98;8.60;;;22.20;60.50;;;;;;5024402;28;20041;-83
2022/05/05 01:30:57;;;;;;;9.65;8.60;;;21.30;62.60;;;;;;5035248;28;20029;-88
2022/05/05 01:33:28;;;;;;;11.25;8.23;;;20.60;63.90;;;;;;5033564;28;20021;-82
2022/05/05 01:35:58;;;;;;;12.32;9.65;;;20.20;65.40;;;;;;5033074;28;20026;-80
2022/05/05 01:38:26;;;;;;;;;;;20.20;66.80;;;;;;5034877;28;20021;-80
2022/05/05 01:40:51;;;;;;;12.10;9.18;;;20.80;65.70;;;;;;5033445;28;19944;-81
2022/05/05 01:43:21;;;;;;;11.32;9.77;;;21.30;64.10;;;;;;5034489;28;20446;-80
2022/05/05 01:45:47;;;;;;;13.00;9.27;;;21.40;64.30;;;;;;5033741;28;20104;-82
2022/05/05 01:48:13;;;;;;;13.30;10.80;;;21.00;64.80;;;;;;5034516;28;20388;-88
2022/05/05 01:50:39;;;;;;;11.93;10.55;;;20.90;65.60;;;;;;5019238;28;20045;-84
2022/05/05 01:53:06;;;;;;;15.05;12.57;;;20.90;66.20;;;;;;5033624;28;20116;-83
2022/05/05 01:55:33;;;;;;;17.38;12.52;;;20.60;66.10;;;;;;5033853;28;20029;-85
2022/05/05 01:58:00;;;;;;;15.38;12.32;;;20.50;66.70;;;;;;5034039;28;20028;-85
2022/05/05 02:00:27;;;;;;;16.83;13.23;;;20.40;67.30;;;;;;5033100;28;20025;-81
2022/05/05 02:02:53;;;;;;;13.60;11.40;;;20.50;67.00;;;;;;5033201;28;20056;-81
2022/05/05 02:05:18;;;;;;;16.80;13.48;;;20.60;67.00;;;;;;5032613;28;20033;-79
2022/05/05 02:07:45;;;;;;;15.98;13.32;;;20.70;67.00;;;;;;5034132;28;20365;-81
2022/05/05 02:10:15;;;;;;;15.27;11.98;;;20.70;66.70;;;;;;5033762;28;20357;-79
2022/05/05 02:12:42;;;;;;;15.30;11.88;;;20.90;66.10;;;;;;5033835;28;20029;-85
2022/05/05 02:15:10;;;;;;;13.95;12.18;;;20.90;65.80;;;;;;5031352;28;20029;-80
2022/05/05 02:17:36;;;;;;;15.40;13.02;;;21.10;65.80;;;;;;5033718;28;20025;-80
2022/05/05 02:20:04;;;;;;;14.52;12.88;;;21.30;65.30;;;;;;5032431;28;20026;-78
2022/05/05 02:22:30;;;;;;;17.95;13.10;;;21.40;64.80;;;;;;5033495;28;20036;-79
2022/05/05 02:24:57;;;;;;;15.60;13.10;;;21.30;64.70;;;;;;5032958;28;20017;-81
2022/05/05 02:27:23;;;;;;;13.90;11.35;;;21.30;65.20;;;;;;5033187;28;20044;-79
2022/05/05 02:29:51;;;;;;;15.80;12.63;;;21.00;65.70;;;;;;5032445;28;20049;-76
2022/05/05 02:32:17;;;;;;;16.60;13.13;;;19.60;70.40;;;;;;5032043;28;20033;-79
2022/05/05 02:34:46;;;;;;;16.27;13.48;;;19.50;71.80;;;;;;5032056;28;20021;-79
2022/05/05 02:39:57;;;;;;;17.88;14.23;;;20.40;69.00;;;;;;5030396;28;20025;-79
2022/05/05 02:42:23;;;;;;;15.35;13.00;;;20.60;68.40;;;;;;5033034;28;20120;-79
2022/05/05 02:44:49;;;;;;;17.13;12.93;;;20.50;68.40;;;;;;5033354;28;20021;-76
2022/05/05 02:47:15;;;;;;;14.85;10.80;;;19.70;70.00;;;;;;5041708;28;20137;-85
2022/05/05 02:49:41;;;;;;;18.00;12.40;;;18.20;74.70;;;;;;5033260;28;20108;-81
2022/05/05 02:52:08;;;;;;;13.45;10.60;;;17.90;77.40;;;;;;5031048;28;20082;-80
2022/05/05 02:54:54;;;;;;;10.38;9.27;;;18.50;75.40;;;;;;5053214;28;20032;-78
2022/05/05 02:57:24;;;;;;;13.73;11.48;;;19.00;73.10;;;;;;5053037;28;20099;-80
2022/05/05 02:59:54;;;;;;;14.82;12.30;;;19.50;72.00;;;;;;5051549;28;20017;-79
2022/05/05 03:02:21;;;;;;;15.43;12.50;;;19.90;70.80;;;;;;5051263;28;20134;-80
2022/05/05 03:04:47;;;;;;;14.93;12.32;;;20.00;70.90;;;;;;5031364;28;20026;-83
2022/05/05 03:07:13;;;;;;;16.20;12.35;;;19.80;70.20;;;;;;5035067;28;20044;-78
2022/05/05 03:09:40;;;;;;;15.60;13.85;;;19.10;72.80;;;;;;5052821;28;20021;-79
2022/05/05 03:12:07;;;;;;;15.40;12.52;;;18.60;76.20;;;;;;5052700;28;20036;-77
2022/05/05 03:14:32;;;;;;;16.02;13.30;;;19.00;73.40;;;;;;5052609;28;20063;-81
2022/05/05 03:16:58;;;;;;;14.88;13.05;;;19.30;73.10;;;;;;5045279;28;20033;-82
2022/05/05 03:19:26;;;;;;;15.65;12.45;;;19.40;72.20;;;;;;5032757;28;20021;-79
2022/05/05 03:21:52;;;;;;;15.77;13.70;;;19.20;72.60;;;;;;5053257;28;20053;-83
2022/05/05 03:24:17;;;;;;;18.02;14.38;;;18.90;73.90;;;;;;5052954;28;20060;-83
2022/05/05 03:26:43;;;;;;;16.70;13.73;;;18.90;74.10;;;;;;5035408;28;20120;-80
2022/05/05 03:29:09;;;;;;;18.50;13.93;;;18.90;73.90;;;;;;5034868;28;20037;-79
2022/05/05 03:31:34;;;;;;;16.67;13.48;;;19.20;73.30;;;;;;5034226;28;20460;-81
2022/05/05 03:34:01;;;;;;;17.30;14.18;;;19.40;72.70;;;;;;5052620;28;20396;-90
2022/05/05 03:36:27;;;;;;;15.93;13.93;;;19.50;71.90;;;;;;5035059;28;20486;-84
2022/05/05 03:38:54;;;;;;;17.00;13.30;;;19.30;72.40;;;;;;5035456;28;20029;-90
2022/05/05 03:41:20;;;;;;;18.10;14.05;;;19.20;72.80;;;;;;5036126;28;20460;-86
2022/05/05 03:43:45;;;;;;;15.65;12.38;;;19.00;73.30;;;;;;5050389;28;20033;-91
2022/05/05 03:46:11;;;;;;;13.48;11.52;;;19.00;73.00;;;;;;5034764;28;20515;-89
2022/05/05 03:48:37;;;;;;;13.10;10.98;;;19.10;72.40;;;;;;5035353;28;20025;-86
2022/05/05 03:51:03;;;;;;;13.77;11.52;;;19.30;71.60;;;;;;5036767;28;20053;-86
2022/05/05 03:53:28;;;;;;;14.68;12.77;;;19.60;71.40;;;;;;5038374;28;20029;-87
2022/05/05 03:55:54;;;;;;;16.48;12.55;;;19.80;71.60;;;;;;5034359;28;20036;-86
2022/05/05 03:58:20;;;;;;;20.52;16.58;;;19.50;73.00;;;;;;5037223;28;20052;-89
2022/05/05 04:00:48;;;;;;;16.88;13.70;;;19.30;74.40;;;;;;5037703;28;20025;-81
2022/05/05 04:03:32;;;;;;;24.77;17.30;;;19.80;72.50;;;;;;5039178;28;20121;-89
2022/05/05 04:06:03;;;;;;;21.02;16.50;;;20.30;71.20;;;;;;5056686;28;20056;-90
2022/05/05 04:08:30;;;;;;;22.60;17.10;;;20.80;69.40;;;;;;5038564;28;20025;-79
2022/05/05 04:10:56;;;;;;;19.45;16.20;;;20.70;69.70;;;;;;5039262;28;20048;-92
2022/05/05 04:13:21;;;;;;;17.20;14.25;;;21.00;68.40;;;;;;5053707;28;20028;-92
2022/05/05 04:15:47;;;;;;;20.10;15.55;;;20.70;69.90;;;;;;5042724;28;20107;-84
2022/05/05 04:18:13;;;;;;;16.02;13.20;;;20.90;69.20;;;;;;5049803;28;20045;-80
2022/05/05 04:20:42;;;;;;;16.90;14.65;;;21.10;68.50;;;;;;5051045;28;20031;-80
2022/05/05 04:23:09;;;;;;;21.40;16.13;;;21.30;68.20;;;;;;5022319;28;20037;-83
2022/05/05 04:25:42;;;;;;;19.88;14.60;;;21.20;68.60;;;;;;5053552;28;20108;-85
2022/05/05 04:28:09;;;;;;;14.95;12.98;;;21.10;67.90;;;;;;5038398;28;20033;-84
2022/05/05 04:30:35;;;;;;;15.27;12.05;;;21.00;67.40;;;;;;5043798;28;20021;-80
2022/05/05 04:33:02;;;;;;;14.13;12.63;;;19.50;70.50;;;;;;5033295;28;20045;-85
2022/05/05 04:35:27;;;;;;;14.90;13.02;;;18.50;75.60;;;;;;5039375;28;20082;-82
2022/05/05 04:37:53;;;;;;;15.32;13.50;;;18.10;78.00;;;;;;5055388;28;20024;-82
2022/05/05 04:40:19;;;;;;;15.57;13.40;;;18.20;77.80;;;;;;5051294;28;20472;-79
2022/05/05 04:42:45;;;;;;;15.95;13.02;;;17.60;80.10;;;;;;5032964;28;20413;-82
2022/05/05 04:45:11;;;;;;;16.20;13.02;;;17.50;80.90;;;;;;5047313;28;20090;-82
2022/05/05 04:47:37;;;;;;;16.65;14.05;;;17.70;80.50;;;;;;4701343;28;9999866;-83
2022/05/05 04:50:04;;;;;;;14.98;13.38;;;18.80;77.40;;;;;;5035234;28;20119;-85
2022/05/05 04:52:31;;;;;;;15.35;13.20;;;19.70;73.80;;;;;;5049955;28;20110;-82
2022/05/05 04:54:57;;;;;;;15.27;13.20;;;20.20;72.20;;;;;;5051205;28;20118;-81
2022/05/05 04:57:23;;;;;;;18.00;15.27;;;20.60;70.80;;;;;;5045896;28;20021;-85
2022/05/05 04:59:48;;;;;;;18.45;14.73;;;21.00;69.50;;;;;;5020281;28;20021;-89
2022/05/05 05:02:14;;;;;;;19.05;15.02;;;21.40;68.30;;;;;;5036068;28;20383;-87
2022/05/05 05:04:40;;;;;;;16.00;14.13;;;21.40;68.40;;;;;;5034599;28;20025;-86
2022/05/05 05:07:06;;;;;;;18.08;16.08;;;21.70;67.80;;;;;;5035132;28;20403;-86
2022/05/05 05:09:32;;;;;;;15.50;13.90;;;21.90;67.00;;;;;;5035612;28;20484;-81
2022/05/05 05:11:58;;;;;;;16.65;14.95;;;21.90;67.10;;;;;;5033556;28;20072;-87
2022/05/05 05:14:23;;;;;;;26.20;19.95;;;21.40;68.60;;;;;;5043013;28;20063;-85
2022/05/05 05:16:49;;;;;;;18.02;15.77;;;21.30;69.50;;;;;;5046358;28;20388;-87
2022/05/05 05:19:14;;;;;;;21.73;15.23;;;20.90;70.00;;;;;;5053807;28;20029;-81
2022/05/05 05:21:40;;;;;;;17.35;15.45;;;21.10;69.50;;;;;;5033933;28;20035;-82
2022/05/05 05:24:07;;;;;;;22.17;17.30;;;21.50;68.90;;;;;;5053285;28;20032;-93
2022/05/05 05:26:33;;;;;;;16.98;15.15;;;21.90;67.90;;;;;;5050453;28;20021;-80
2022/05/05 05:28:58;;;;;;;23.60;17.95;;;22.10;67.40;;;;;;5049942;28;20098;-81
2022/05/05 05:31:24;;;;;;;18.77;15.85;;;22.20;66.90;;;;;;5033765;28;20022;-80
2022/05/05 05:33:50;;;;;;;16.40;14.48;;;22.30;67.10;;;;;;5048201;28;20039;-82
2022/05/05 05:36:15;;;;;;;15.50;13.00;;;22.30;65.60;;;;;;5025288;28;20029;-80
2022/05/05 05:38:41;;;;;;;16.70;14.05;;;22.20;65.90;;;;;;5043082;28;20033;-79
2022/05/05 05:41:08;;;;;;;14.52;12.25;;;22.30;65.70;;;;;;5031053;28;20396;-85
2022/05/05 05:43:34;;;;;;;15.90;12.05;;;22.20;66.10;;;;;;5038987;28;20016;-78
2022/05/05 05:46:01;;;;;;;17.52;14.07;;;22.10;65.80;;;;;;5051332;28;20037;-78
2022/05/05 05:48:26;;;;;;;14.90;13.20;;;22.20;66.80;;;;;;5035194;28;20059;-96
2022/05/05 05:50:52;;;;;;;16.13;13.60;;;22.30;66.30;;;;;;5055036;28;20507;-80
2022/05/05 05:53:18;;;;;;;14.65;12.55;;;22.20;66.60;;;;;;5054990;28;20492;-79
2022/05/05 05:55:44;;;;;;;16.52;14.15;;;21.60;68.20;;;;;;5035519;28;20373;-92
2022/05/05 05:58:09;;;;;;;14.23;12.32;;;21.00;70.20;;;;;;5049267;28;20025;-79
2022/05/05 06:00:35;;;;;;;16.38;13.55;;;20.60;71.50;;;;;;5031965;28;20037;-78
2022/05/05 06:05:45;;;;;;;13.57;12.13;;;21.60;69.80;;;;;;5037672;28;20041;-83
2022/05/05 06:08:11;;;;;;;17.23;14.30;;;22.20;68.60;;;;;;5039911;28;20044;-80
2022/05/05 06:10:37;;;;;;;14.00;12.50;;;22.70;67.30;;;;;;5038128;28;20022;-78
2022/05/05 06:13:03;;;;;;;13.52;11.35;;;23.10;65.90;;;;;;5037978;28;20057;-80
2022/05/05 06:15:29;;;;;;;11.43;9.90;;;23.00;66.20;;;;;;5021795;28;20155;-80
2022/05/05 06:17:55;;;;;;;11.48;10.27;;;21.60;68.30;;;;;;5021059;28;20025;-78
2022/05/05 06:20:21;;;;;;;12.52;11.15;;;21.00;71.30;;;;;;5041109;28;20045;-90
2022/05/05 06:22:47;;;;;;;12.57;10.68;;;21.20;71.70;;;;;;5019963;28;20397;-90
2022/05/05 06:25:13;;;;;;;11.63;10.40;;;21.90;69.50;;;;;;5041721;28;20476;-78
2022/05/05 06:27:40;;;;;;;11.88;10.57;;;22.60;67.80;;;;;;5033166;28;20087;-81
2022/05/05 06:30:10;;;;;;;12.20;9.20;;;23.10;65.90;;;;;;5031857;28;20091;-80
2022/05/05 06:32:36;;;;;;;12.98;10.15;;;23.40;64.30;;;;;;5013925;28;20032;-77
2022/05/05 06:35:02;;;;;;;10.98;9.68;;;23.60;63.10;;;;;;5014266;28;20025;-87
2022/05/05 06:37:28;;;;;;;11.80;10.30;;;23.40;63.80;;;;;;5013895;28;20029;-81
2022/05/05 06:39:54;;;;;;;12.40;9.80;;;23.40;63.80;;;;;;5032059;28;20028;-81
2022/05/05 06:42:20;;;;;;;10.85;9.30;;;23.00;64.50;;;;;;5015756;28;20031;-80
2022/05/05 06:44:46;;;;;;;12.00;10.02;;;22.70;64.80;;;;;;5015066;28;20028;-91
2022/05/05 06:47:11;;;;;;;11.52;10.07;;;22.70;65.70;;;;;;5014830;28;20041;-79
2022/05/05 06:49:37;;;;;;;12.75;10.35;;;23.00;65.30;;;;;;5033385;28;20031;-80
2022/05/05 06:52:03;;;;;;;12.02;10.40;;;23.00;64.70;;;;;;5033184;28;20427;-80
2022/05/05 06:54:29;;;;;;;12.23;10.50;;;23.10;65.40;;;;;;5014297;28;20025;-79
2022/05/05 06:56:55;;;;;;;12.55;11.25;;;22.80;65.60;;;;;;5031588;28;20028;-79
2022/05/05 06:59:22;;;;;;;14.35;11.20;;;22.80;66.10;;;;;;5032480;28;20025;-86
2022/05/05 07:01:53;;;;;;;11.63;10.43;;;22.70;66.40;;;;;;5032226;28;20025;-84
2022/05/05 07:07:05;;;;;;;12.95;11.25;;;22.10;67.50;;;;;;5032507;28;20084;-83
2022/05/05 07:12:15;;;;;;;12.10;10.65;;;21.80;69.10;;;;;;5033269;28;20040;-84
2022/05/05 07:14:43;;;;;;;14.27;11.63;;;21.70;69.40;;;;;;5032502;28;20389;-80
2022/05/05 07:17:09;;;;;;;11.75;10.32;;;21.70;69.80;;;;;;5015030;28;20067;-80
2022/05/05 07:19:35;;;;;;;12.80;10.00;;;22.00;68.80;;;;;;5015308;28;20025;-79
2022/05/05 07:22:01;;;;;;;17.00;12.25;;;22.40;68.50;;;;;;5033181;28;20029;-79
2022/05/05 07:24:29;;;;;;;13.32;10.25;;;22.80;67.20;;;;;;5032690;28;20088;-79
2022/05/05 07:26:55;;;;;;;13.48;11.30;;;23.00;66.90;;;;;;5035963;28;20029;-79
2022/05/05 07:29:21;;;;;;;12.35;10.18;;;23.40;66.10;;;;;;5036979;28;20424;-76
2022/05/05 07:31:47;;;;;;;13.02;9.25;;;23.60;65.30;;;;;;5019074;28;20032;-78
2022/05/05 07:34:12;;;;;;;11.02;9.13;;;23.80;63.60;;;;;;5036631;28;20049;-76
2022/05/05 07:36:39;;;;;;;10.35;8.77;;;23.90;62.90;;;;;;5036770;28;20119;-76
2022/05/05 07:39:05;;;;;;;11.88;9.65;;;23.80;62.90;;;;;;5036922;28;20032;-81
2022/05/05 07:41:31;;;;;;;9.48;8.45;;;23.80;62.90;;;;;;5019038;28;20029;-83
2022/05/05 07:43:57;;;;;;;9.50;8.23;;;24.00;63.00;;;;;;5036844;28;20021;-76
2022/05/05 07:46:23;;;;;;;10.15;8.20;;;24.10;63.20;;;;;;5036257;28;20044;-78
2022/05/05 07:48:49;;;;;;;8.75;7.63;;;24.20;64.30;;;;;;5036623;28;20116;-76
2022/05/05 07:51:15;;;;;;;8.80;7.03;;;24.40;63.00;;;;;;5036741;28;20468;-89
2022/05/05 07:53:40;;;;;;;10.13;8.35;;;22.70;64.40;;;;;;5018770;28;20535;-88
2022/05/05 07:56:06;;;;;;;11.40;7.40;;;22.40;67.90;;;;;;5036695;28;20017;-79
2022/05/05 07:58:33;;;;;;;12.40;6.68;;;22.30;66.50;;;;;;5018825;28;20060;-79
2022/05/05 08:00:59;;;;;;;9.63;8.40;;;22.00;67.20;;;;;;5036319;28;20028;-91
2022/05/05 08:03:24;;;;;;;10.20;8.35;;;21.50;70.70;;;;;;5019364;28;20033;-79
2022/05/05 08:05:50;;;;;;;10.30;7.85;;;22.10;69.70;;;;;;5036301;28;20052;-78
2022/05/05 08:08:16;;;;;;;7.88;6.82;;;22.40;68.40;;;;;;5019182;28;20033;-92
2022/05/05 08:10:41;;;;;;;10.05;7.38;;;22.30;69.30;;;;;;5018839;28;20021;-82
2022/05/05 08:13:07;;;;;;;7.93;6.78;;;22.90;68.10;;;;;;5036785;28;20050;-81
2022/05/05 08:15:33;;;;;;;8.85;6.57;;;23.30;67.30;;;;;;5018866;28;20028;-80
2022/05/05 08:17:59;;;;;;;8.52;6.50;;;23.80;65.20;;;;;;5036435;28;20387;-91
2022/05/05 08:20:24;;;;;;;7.63;6.82;;;24.10;64.10;;;;;;5018993;28;20036;-78
2022/05/05 08:22:50;;;;;;;10.05;7.20;;;24.50;63.80;;;;;;5018541;28;20028;-87
2022/05/05 08:30:44;;;;;;;9.18;5.95;;;23.60;64.90;;;;;;5036100;28;20037;-82
2022/05/05 08:33:10;;;;;;;7.35;5.80;;;23.80;64.20;;;;;;5036253;28;20025;-86
2022/05/05 08:35:36;;;;;;;7.07;6.18;;;23.40;65.40;;;;;;5035822;28;20026;-81
2022/05/05 08:38:02;;;;;;;8.43;6.63;;;23.00;65.60;;;;;;5035469;28;20048;-77
2022/05/05 08:40:28;;;;;;;8.70;6.38;;;23.00;65.60;;;;;;4354105;28;10000708;-78
2022/05/05 08:42:54;;;;;;;8.45;6.50;;;22.80;68.50;;;;;;5055797;28;20070;-79
2022/05/05 08:45:21;;;;;;;8.40;6.80;;;22.40;65.90;;;;;;5037421;28;20483;-86
2022/05/05 08:47:50;;;;;;;8.23;6.80;;;22.60;68.20;;;;;;5037488;28;20041;-83
2022/05/05 08:50:17;;;;;;;10.55;6.53;;;22.70;66.00;;;;;;5055826;28;20383;-78
2022/05/05 08:52:48;;;;;;;7.15;6.00;;;22.90;65.80;;;;;;5037866;28;20389;-79
2022/05/05 08:55:16;;;;;;;7.15;5.93;;;23.00;65.80;;;;;;5037470;28;20028;-80
2022/05/05 08:57:42;;;;;;;7.75;6.78;;;23.00;66.40;;;;;;5055522;28;20032;-82
2022/05/05 09:00:15;;;;;;;8.85;6.45;;;23.10;65.00;;;;;;5054752;28;20025;-79
2022/05/05 09:02:43;;;;;;;8.98;7.13;;;23.10;65.30;;;;;;5055504;28;20087;-83
2022/05/05 09:05:09;;;;;;;8.00;7.05;;;22.80;66.40;;;;;;5037800;28;20025;-86
2022/05/05 09:07:48;;;;;;;7.75;6.43;;;22.90;66.00;;;;;;5037327;28;20179;-81
2022/05/05 09:10:16;;;;;;;8.40;6.75;;;23.00;67.00;;;;;;5055358;28;20507;-81
2022/05/05 09:12:42;;;;;;;8.35;6.78;;;23.10;66.40;;;;;;5055085;28;20061;-79
2022/05/05 09:15:11;;;;;;;9.73;6.70;;;23.00;66.60;;;;;;5036987;28;20033;-83
2022/05/05 09:17:37;;;;;;;9.45;6.68;;;23.10;67.40;;;;;;5055082;28;20371;-87
2022/05/05 09:20:06;;;;;;;7.65;6.85;;;23.90;64.60;;;;;;5037422;28;20439;-80
2022/05/05 09:22:32;;;;;;;8.38;6.65;;;23.80;64.40;;;;;;5055352;28;20033;-83
2022/05/05 09:24:57;;;;;;;8.15;6.20;;;23.60;64.10;;;;;;5036827;28;20036;-78
2022/05/05 09:27:24;;;;;;;8.05;6.40;;;23.50;66.50;;;;;;5054847;28;20116;-84
2022/05/05 09:30:00;;;;;;;7.85;6.88;;;23.50;65.40;;;;;;5037644;28;20025;-83
2022/05/05 09:32:41;;;;;;;8.20;6.32;;;23.90;65.60;;;;;;5037281;28;20028;-80
2022/05/05 09:35:11;;;;;;;7.60;6.70;;;24.30;63.90;;;;;;5050123;28;20384;-81
2022/05/05 09:37:48;;;;;;;8.82;6.50;;;23.80;64.30;;;;;;5054862;28;20120;-86
2022/05/05 09:40:17;;;;;;;8.98;6.57;;;23.80;66.60;;;;;;5054784;28;20450;-79
2022/05/05 09:42:49;;;;;;;6.95;5.38;;;24.10;64.80;;;;;;5054920;28;20039;-77
2022/05/05 09:45:19;;;;;;;8.27;5.75;;;24.10;62.10;;;;;;5036934;28;20028;-84
2022/05/05 09:47:51;;;;;;;7.45;5.85;;;23.90;64.00;;;;;;5036606;28;20041;-85
2022/05/05 09:50:21;;;;;;;7.18;5.22;;;23.40;62.70;;;;;;5037268;28;20017;-84
2022/05/05 09:58:21;;;;;;;7.63;4.68;;;23.90;61.50;;;;;;5054521;28;20075;-88
2022/05/05 10:00:52;;;;;;;5.70;4.50;;;23.80;61.40;;;;;;5054460;28;20048;-81
2022/05/05 10:06:31;;;;;;;6.13;4.50;;;24.40;60.30;;;;;;5054210;28;20023;-76
2022/05/05 10:09:20;;;;;;;5.00;4.05;;;24.90;60.40;;;;;;5054626;28;20495;-79
2022/05/05 10:11:46;;;;;;;6.38;4.50;;;24.60;58.50;;;;;;5036051;28;20484;-84
2022/05/05 10:14:14;;;;;;;5.97;4.03;;;24.60;60.60;;;;;;5053762;28;20025;-84
2022/05/05 10:16:42;;;;;;;5.72;3.80;;;24.50;59.30;;;;;;5036099;28;20499;-79
2022/05/05 10:19:09;;;;;;;4.78;3.97;;;24.40;58.20;;;;;;5036136;28;20043;-80
2022/05/05 10:21:52;;;;;;;6.32;3.80;;;24.80;58.20;;;;;;5053498;28;20388;-80
2022/05/05 10:24:30;;;;;;;6.85;4.10;;;25.00;59.00;;;;;;5036129;28;20120;-82
2022/05/05 10:27:00;;;;;;;5.10;4.18;;;25.10;57.70;;;;;;5053734;28;20040;-79
2022/05/05 10:29:36;;;;;;;4.97;4.00;;;25.30;57.30;;;;;;5036024;28;20036;-82
2022/05/05 10:32:30;;;;;;;8.70;4.40;;;24.40;56.50;;;;;;5049406;28;20108;-85
2022/05/05 10:35:15;;;;;;;5.05;3.92;;;25.10;59.70;;;;;;5035695;28;20361;-88
2022/05/05 10:37:42;;;;;;;5.15;4.20;;;26.30;56.20;;;;;;5025460;28;20044;-79
2022/05/05 10:40:10;;;;;;;4.75;3.97;;;26.80;55.70;;;;;;5053467;28;20033;-81
2022/05/05 10:42:40;;;;;;;5.65;4.10;;;27.90;53.80;;;;;;5035935;28;20017;-83
2022/05/05 10:45:13;;;;;;;;;;;28.60;53.60;;;;;;5036345;28;20120;-80
2022/05/05 10:50:56;;;;;;;6.93;4.45;;;27.90;53.20;;;;;;5053302;28;20025;-80
2022/05/05 10:53:25;;;;;;;5.90;4.55;;;27.20;55.40;;;;;;5035835;28;20531;-84
2022/05/05 10:55:51;;;;;;;9.48;4.80;;;27.60;55.10;;;;;;5053158;28;20021;-77
2022/05/05 10:58:54;;;;;;;9.88;5.03;;;26.80;54.20;;;;;;5052999;28;20020;-83
2022/05/05 11:01:20;;;;;;;6.10;4.93;;;26.90;54.10;;;;;;5034303;28;20028;-82
2022/05/05 11:04:04;;;;;;;7.13;4.20;;;26.40;55.10;;;;;;5035384;28;20029;-79
2022/05/05 11:06:32;;;;;;;5.68;4.63;;;26.70;55.80;;;;;;5053091;28;20033;-77
2022/05/05 11:08:58;;;;;;;6.95;5.18;;;26.50;56.50;;;;;;5035367;28;20033;-83
2022/05/05 11:11:42;;;;;;;5.90;5.00;;;26.30;55.90;;;;;;5053121;28;20025;-87
2022/05/05 11:22:58;;;;;;;8.63;5.30;;;27.40;55.40;;;;;;5053657;28;20082;-76
2022/05/05 11:25:24;;;;;;;6.57;5.18;;;27.00;53.40;;;;;;5034852;28;20487;-81
2022/05/05 11:27:56;;;;;;;7.30;5.70;;;26.30;54.70;;;;;;5035424;28;20036;-80
2022/05/05 11:30:21;;;;;;;6.63;5.00;;;26.50;54.10;;;;;;5052958;28;20527;-78
2022/05/05 11:32:48;;;;;;;9.13;5.10;;;26.30;55.00;;;;;;5052873;28;20039;-92
2022/05/05 11:35:20;;;;;;;7.70;5.70;;;26.10;54.90;;;;;;5035446;28;20021;-88
2022/05/05 11:37:45;;;;;;;10.77;4.60;;;26.60;55.10;;;;;;5034975;28;20040;-80
2022/05/05 11:40:12;;;;;;;5.57;4.10;;;26.90;55.00;;;;;;5052801;28;20025;-83
2022/05/05 11:44:14;;;;;;;5.72;4.78;;;25.80;53.80;;;;;;5053025;28;20025;-80
2022/05/05 11:45:29;;;;;;;7.18;4.20;;;25.00;56.10;;;;;;5052397;28;20112;-86
2022/05/05 11:47:55;;;;;;;6.40;4.75;;;24.90;55.30;;;;;;5034776;28;20094;-81
2022/05/05 11:50:21;;;;;;;7.28;4.75;;;25.50;55.90;;;;;;5035362;28;20379;-84
2022/05/05 11:52:47;;;;;;;5.97;4.28;;;26.00;55.90;;;;;;5052705;28;20029;-88
2022/05/05 11:55:17;;;;;;;5.72;4.07;;;26.00;54.60;;;;;;5053141;28;20025;-87
2022/05/05 11:57:45;;;;;;;6.50;4.60;;;26.60;54.80;;;;;;5035034;28;20025;-80
2022/05/05 12:02:57;;;;;;;7.32;4.60;;;26.50;53.80;;;;;;5053174;28;20035;-84
2022/05/05 12:05:24;;;;;;;6.25;4.25;;;27.00;53.50;;;;;;5052266;28;20044;-84
2022/05/05 12:07:54;;;;;;;7.50;4.60;;;26.20;53.00;;;;;;5052803;28;20068;-87
2022/05/05 12:10:23;;;;;;;;;;;25.70;53.90;;;;;;5034940;28;20095;-78
2022/05/05 12:12:50;;;;;;;6.03;5.00;;;25.00;54.30;;;;;;5054811;28;20262;-79
2022/05/05 12:15:18;;;;;;;6.20;4.88;;;25.50;56.10;;;;;;5038448;28;20033;-81
2022/05/05 12:17:57;;;;;;;7.90;4.88;;;25.50;53.70;;;;;;5056296;28;20412;-82
2022/05/05 12:20:24;;;;;;;5.38;4.78;;;25.40;56.30;;;;;;5038475;28;20029;-85
2022/05/05 12:23:00;;;;;;;6.05;4.90;;;25.90;56.20;;;;;;5038645;28;20021;-83
2022/05/05 12:25:27;;;;;;;5.57;4.80;;;26.30;55.50;;;;;;5055716;28;20033;-78
2022/05/05 12:27:58;;;;;;;6.10;4.60;;;26.60;55.40;;;;;;5038213;28;20120;-82
2022/05/05 12:30:32;;;;;;;7.28;4.82;;;27.20;53.80;;;;;;5038672;28;20128;-92
2022/05/05 12:32:58;;;;;;;7.80;4.72;;;26.70;55.00;;;;;;5055961;28;20036;-81
2022/05/05 12:35:31;;;;;;;5.97;4.95;;;26.90;54.30;;;;;;5055844;28;20021;-77
2022/05/05 12:38:02;;;;;;;5.72;4.55;;;26.80;53.20;;;;;;5055798;28;20029;-79
2022/05/05 12:40:27;;;;;;;;;;;26.80;53.00;;;;;;5038594;28;20064;-86
2022/05/05 12:43:08;;;;;;;5.93;4.88;;;25.90;53.90;;;;;;5055681;28;19911;-82
2022/05/05 12:45:34;;;;;;;;;;;26.40;53.20;;;;;;5055989;28;20021;-79
2022/05/05 12:48:02;;;;;;;6.07;4.88;;;26.30;53.10;;;;;;5055503;28;19920;-81
2022/05/05 12:50:54;;;;;;;8.52;4.72;;;26.50;53.80;;;;;;5055561;28;20353;-87
2022/05/05 13:01:42;;;;;;;10.30;5.00;;;27.10;54.20;;;;;;5055805;28;20431;-82
2022/05/05 13:04:10;;;;;;;8.88;5.72;;;27.30;52.20;;;;;;5055462;28;20506;-82
2022/05/05 13:06:38;;;;;;;6.15;4.57;;;27.00;53.00;;;;;;5037100;28;20033;-88
2022/05/05 13:09:06;;;;;;;7.03;4.95;;;26.90;53.70;;;;;;5055512;28;20032;-82
2022/05/05 13:11:32;;;;;;;6.75;4.97;;;27.00;53.70;;;;;;5055864;28;20385;-79
2022/05/05 13:13:58;;;;;;;8.40;4.65;;;27.40;53.90;;;;;;5054788;28;20033;-79
2022/05/05 13:16:27;;;;;;;6.18;4.43;;;27.70;53.20;;;;;;5055038;28;20486;-81
2022/05/05 13:18:53;;;;;;;7.10;4.85;;;28.00;52.70;;;;;;5037530;28;20533;-82
2022/05/05 13:21:18;;;;;;;9.80;5.10;;;27.70;51.90;;;;;;5036999;28;20059;-82
2022/05/05 13:23:44;;;;;;;6.82;5.13;;;28.00;52.20;;;;;;5054324;28;20036;-81
2022/05/05 13:26:11;;;;;;;6.38;4.85;;;28.30;52.80;;;;;;5037546;28;20384;-84
2022/05/05 13:28:37;;;;;;;6.45;4.35;;;28.60;51.60;;;;;;5036676;28;20036;-84
2022/05/05 13:31:04;;;;;;;6.30;4.35;;;28.50;51.70;;;;;;5054704;28;20029;-84
2022/05/05 13:33:30;;;;;;;5.88;4.68;;;27.50;51.40;;;;;;5054749;28;20028;-80
2022/05/05 13:35:56;;;;;;;9.38;4.80;;;27.40;51.70;;;;;;5036480;28;20021;-90